This is the latest recevied weather packets stored in our database for station/object N6RDS-8. If no packets are shown the sender has not sent any weather packets the latest 1 day(s).
| Time | Temp. | Humidity | Pressure | Rain* | Wind** | Luminosity | Snow |
|---|---|---|---|---|---|---|---|
| 1778004702 | 21.67° C | 47% | 1016.4 hPa | 0 mm | 1.34 m/s, 224° | 902 W/m² | - |
| 1778004398 | 21.67° C | 46% | 1016.4 hPa | 0 mm | 1.79 m/s, 154° | 821 W/m² | - |
| 1778004095 | 21.67° C | 45% | 1016.4 hPa | 0 mm | 2.68 m/s, 147° | 699 W/m² | - |
| 1778003791 | 21.67° C | 47% | 1016.7 hPa | 0 mm | 1.79 m/s, 231° | 756 W/m² | - |
| 1778003488 | 21.67° C | 49% | 1016.5 hPa | 0 mm | 2.24 m/s, 177° | 784 W/m² | - |
| 1778003184 | 22.22° C | 47% | 1016.2 hPa | 0 mm | 2.68 m/s, 195° | 695 W/m² | - |
| 1778002881 | 21.67° C | 48% | 1016.5 hPa | 0 mm | 2.68 m/s, 178° | 756 W/m² | - |
| 1778002577 | 21.11° C | 50% | 1016.5 hPa | 0 mm | 1.79 m/s, 175° | 542 W/m² | - |
| 1778002274 | 20.56° C | 51% | 1016.6 hPa | 0 mm | 1.79 m/s, 190° | 714 W/m² | - |
| 1778001971 | 21.11° C | 53% | 1016.7 hPa | 0 mm | 2.24 m/s, 251° | 594 W/m² | - |
| 1778001668 | 20° C | 53% | 1016.7 hPa | 0 mm | 2.68 m/s, 222° | 865 W/m² | - |
| 1778001362 | 21.11° C | 51% | 1016.4 hPa | 0 mm | 2.24 m/s, 224° | 215 W/m² | - |
| 1778001060 | 20° C | 57% | 1016.6 hPa | 0 mm | 1.34 m/s, 176° | 717 W/m² | - |
| 1778000756 | 20° C | 58% | 1016.7 hPa | 0 mm | 0.89 m/s, 85° | 232 W/m² | - |
| 1778000453 | 20° C | 62% | 1016.6 hPa | 0 mm | 0.45 m/s, 340° | 637 W/m² | - |
| 1778000148 | 20° C | 61% | 1016.7 hPa | 0 mm | 0.89 m/s, 217° | 575 W/m² | - |
| 1777999844 | 18.89° C | 61% | 1016.8 hPa | 0 mm | 1.79 m/s, 295° | 704 W/m² | - |
| 1777999540 | 18.33° C | 64% | 1016.7 hPa | 0 mm | 0.45 m/s, 207° | 654 W/m² | - |
| 1777999238 | 18.33° C | 65% | 1016.8 hPa | 0 mm | 0.45 m/s, 118° | 694 W/m² | - |
| 1777998937 | 17.78° C | 64% | 1016.7 hPa | 0 mm | 0.89 m/s, 160° | 305 W/m² | - |
| 1777998633 | 17.22° C | 64% | 1016.7 hPa | 0 mm | 0.45 m/s, 125° | 152 W/m² | - |
| 1777998326 | 17.78° C | 67% | 1016.9 hPa | 0 mm | 0.89 m/s, 318° | 150 W/m² | - |
| 1777998023 | 17.22° C | 67% | 1016.8 hPa | 0 mm | 0.45 m/s, 17° | 163 W/m² | - |
| 1777997720 | 17.78° C | 68% | 1016.9 hPa | 0 mm | 0.45 m/s, 89° | 418 W/m² | - |
| 1777997417 | 18.33° C | 63% | 1016.9 hPa | 0 mm | 0.89 m/s, 319° | 251 W/m² | - |
* Rain latest hour (hover to see other rain measurements)
** Current wind speed in m/s (hover to see current wind gust speed)